sensor_id;sensor_type;location;lat;lon;timestamp;temperature;humidity
20839;DHT22;10580;51.092;6.828;2022-08-25T00:00:36;23.00;99.90
20839;DHT22;10580;51.092;6.828;2022-08-25T00:03:04;22.90;99.90
20839;DHT22;10580;51.092;6.828;2022-08-25T00:05:30;22.80;1.00
20839;DHT22;10580;51.092;6.828;2022-08-25T00:07:56;22.80;99.90
20839;DHT22;10580;51.092;6.828;2022-08-25T00:10:22;22.80;99.90
20839;DHT22;10580;51.092;6.828;2022-08-25T00:12:47;22.80;99.90
20839;DHT22;10580;51.092;6.828;2022-08-25T00:15:13;22.80;99.90
20839;DHT22;10580;51.092;6.828;2022-08-25T00:17:38;22.70;1.00
20839;DHT22;10580;51.092;6.828;2022-08-25T00:20:05;22.60;1.00
20839;DHT22;10580;51.092;6.828;2022-08-25T00:22:31;22.60;1.00
20839;DHT22;10580;51.092;6.828;2022-08-25T00:24:56;22.50;1.00
20839;DHT22;10580;51.092;6.828;2022-08-25T00:27:22;22.50;1.00
20839;DHT22;10580;51.092;6.828;2022-08-25T00:29:48;22.50;1.00
20839;DHT22;10580;51.092;6.828;2022-08-25T00:32:13;22.50;1.00
20839;DHT22;10580;51.092;6.828;2022-08-25T00:34:40;22.50;1.00
20839;DHT22;10580;51.092;6.828;2022-08-25T00:37:06;22.50;99.90
20839;DHT22;10580;51.092;6.828;2022-08-25T00:39:33;22.50;99.90
20839;DHT22;10580;51.092;6.828;2022-08-25T00:41:59;22.50;99.90
20839;DHT22;10580;51.092;6.828;2022-08-25T00:44:27;22.50;99.90
20839;DHT22;10580;51.092;6.828;2022-08-25T00:46:56;22.50;99.90
20839;DHT22;10580;51.092;6.828;2022-08-25T00:51:55;22.60;81.50
20839;DHT22;10580;51.092;6.828;2022-08-25T00:54:27;22.60;26.30
20839;DHT22;10580;51.092;6.828;2022-08-25T00:56:54;22.50;47.90
20839;DHT22;10580;51.092;6.828;2022-08-25T00:59:21;22.50;96.40
20839;DHT22;10580;51.092;6.828;2022-08-25T01:01:49;22.50;99.90
20839;DHT22;10580;51.092;6.828;2022-08-25T01:04:15;22.50;99.90
20839;DHT22;10580;51.092;6.828;2022-08-25T01:06:42;22.40;99.90
20839;DHT22;10580;51.092;6.828;2022-08-25T01:09:09;22.40;99.90
20839;DHT22;10580;51.092;6.828;2022-08-25T01:11:35;22.30;99.90
20839;DHT22;10580;51.092;6.828;2022-08-25T01:14:02;22.20;1.00
20839;DHT22;10580;51.092;6.828;2022-08-25T01:16:33;22.20;1.00
20839;DHT22;10580;51.092;6.828;2022-08-25T01:18:59;22.10;1.00
20839;DHT22;10580;51.092;6.828;2022-08-25T01:21:27;22.10;1.00
20839;DHT22;10580;51.092;6.828;2022-08-25T01:23:54;22.00;83.90
20839;DHT22;10580;51.092;6.828;2022-08-25T01:26:25;21.90;1.00
20839;DHT22;10580;51.092;6.828;2022-08-25T01:28:52;21.90;99.90
20839;DHT22;10580;51.092;6.828;2022-08-25T01:31:37;21.80;99.90
20839;DHT22;10580;51.092;6.828;2022-08-25T01:34:04;21.80;99.90
20839;DHT22;10580;51.092;6.828;2022-08-25T01:36:30;21.80;99.90
20839;DHT22;10580;51.092;6.828;2022-08-25T01:38:56;21.70;1.00
20839;DHT22;10580;51.092;6.828;2022-08-25T01:41:35;21.70;1.00
20839;DHT22;10580;51.092;6.828;2022-08-25T01:44:04;21.60;92.30
20839;DHT22;10580;51.092;6.828;2022-08-25T01:46:30;21.50;1.00
20839;DHT22;10580;51.092;6.828;2022-08-25T01:48:56;21.50;99.90
20839;DHT22;10580;51.092;6.828;2022-08-25T01:51:24;21.40;99.90
20839;DHT22;10580;51.092;6.828;2022-08-25T01:53:52;21.40;1.00
20839;DHT22;10580;51.092;6.828;2022-08-25T01:56:17;21.30;99.90
20839;DHT22;10580;51.092;6.828;2022-08-25T01:58:46;21.30;99.90
20839;DHT22;10580;51.092;6.828;2022-08-25T02:01:16;21.20;1.00
20839;DHT22;10580;51.092;6.828;2022-08-25T02:03:45;21.20;99.90
20839;DHT22;10580;51.092;6.828;2022-08-25T02:06:13;21.20;1.00
20839;DHT22;10580;51.092;6.828;2022-08-25T02:08:39;21.10;99.90
20839;DHT22;10580;51.092;6.828;2022-08-25T02:11:07;21.10;99.90
20839;DHT22;10580;51.092;6.828;2022-08-25T02:13:36;21.10;1.00
20839;DHT22;10580;51.092;6.828;2022-08-25T02:16:02;21.10;1.00
20839;DHT22;10580;51.092;6.828;2022-08-25T02:18:27;21.10;99.90
20839;DHT22;10580;51.092;6.828;2022-08-25T02:20:53;21.10;99.90
20839;DHT22;10580;51.092;6.828;2022-08-25T02:23:19;21.00;1.00
20839;DHT22;10580;51.092;6.828;2022-08-25T02:25:45;21.00;1.00
20839;DHT22;10580;51.092;6.828;2022-08-25T02:28:11;21.00;1.00
20839;DHT22;10580;51.092;6.828;2022-08-25T02:30:39;21.00;99.90
20839;DHT22;10580;51.092;6.828;2022-08-25T02:33:05;20.90;1.00
20839;DHT22;10580;51.092;6.828;2022-08-25T02:35:31;20.90;99.90
20839;DHT22;10580;51.092;6.828;2022-08-25T02:37:56;20.90;1.00
20839;DHT22;10580;51.092;6.828;2022-08-25T02:40:22;20.80;1.00
20839;DHT22;10580;51.092;6.828;2022-08-25T02:42:49;20.70;1.00
20839;DHT22;10580;51.092;6.828;2022-08-25T02:45:16;20.70;1.00
20839;DHT22;10580;51.092;6.828;2022-08-25T02:47:43;20.50;1.00
20839;DHT22;10580;51.092;6.828;2022-08-25T02:50:09;20.40;1.00
20839;DHT22;10580;51.092;6.828;2022-08-25T02:52:35;20.40;1.00
20839;DHT22;10580;51.092;6.828;2022-08-25T02:55:02;20.30;1.00
20839;DHT22;10580;51.092;6.828;2022-08-25T02:57:29;20.30;1.00
20839;DHT22;10580;51.092;6.828;2022-08-25T02:59:55;20.30;1.00
20839;DHT22;10580;51.092;6.828;2022-08-25T03:02:22;20.30;1.00
20839;DHT22;10580;51.092;6.828;2022-08-25T03:04:49;20.30;1.00
20839;DHT22;10580;51.092;6.828;2022-08-25T03:07:16;20.40;1.00
20839;DHT22;10580;51.092;6.828;2022-08-25T03:09:42;20.40;1.00
20839;DHT22;10580;51.092;6.828;2022-08-25T03:12:09;20.40;1.00
20839;DHT22;10580;51.092;6.828;2022-08-25T03:14:36;20.40;1.00
20839;DHT22;10580;51.092;6.828;2022-08-25T03:17:02;20.40;1.00
20839;DHT22;10580;51.092;6.828;2022-08-25T03:19:27;20.40;1.00
20839;DHT22;10580;51.092;6.828;2022-08-25T03:21:53;20.30;1.00
20839;DHT22;10580;51.092;6.828;2022-08-25T03:24:22;20.30;1.00
20839;DHT22;10580;51.092;6.828;2022-08-25T03:26:48;20.30;1.00
20839;DHT22;10580;51.092;6.828;2022-08-25T03:29:25;20.30;1.00
20839;DHT22;10580;51.092;6.828;2022-08-25T03:31:52;20.30;1.00
20839;DHT22;10580;51.092;6.828;2022-08-25T03:34:20;20.20;1.00
20839;DHT22;10580;51.092;6.828;2022-08-25T03:36:48;20.20;1.00
20839;DHT22;10580;51.092;6.828;2022-08-25T03:39:17;20.10;1.00
20839;DHT22;10580;51.092;6.828;2022-08-25T03:41:43;20.20;1.00
20839;DHT22;10580;51.092;6.828;2022-08-25T03:44:09;20.10;1.00
20839;DHT22;10580;51.092;6.828;2022-08-25T03:46:44;20.00;1.00
20839;DHT22;10580;51.092;6.828;2022-08-25T03:49:16;20.00;1.00
20839;DHT22;10580;51.092;6.828;2022-08-25T03:51:46;19.90;1.00
20839;DHT22;10580;51.092;6.828;2022-08-25T03:54:13;19.90;1.00
20839;DHT22;10580;51.092;6.828;2022-08-25T03:56:39;19.80;1.00
20839;DHT22;10580;51.092;6.828;2022-08-25T03:59:05;19.80;1.00
20839;DHT22;10580;51.092;6.828;2022-08-25T04:01:34;19.70;1.00
20839;DHT22;10580;51.092;6.828;2022-08-25T04:04:01;19.60;1.00
20839;DHT22;10580;51.092;6.828;2022-08-25T04:06:26;19.60;1.00
20839;DHT22;10580;51.092;6.828;2022-08-25T04:08:52;19.70;1.00
20839;DHT22;10580;51.092;6.828;2022-08-25T04:11:20;19.70;1.00
20839;DHT22;10580;51.092;6.828;2022-08-25T04:13:46;19.80;1.00
20839;DHT22;10580;51.092;6.828;2022-08-25T04:16:18;19.90;1.00
20839;DHT22;10580;51.092;6.828;2022-08-25T04:18:45;19.90;1.00
20839;DHT22;10580;51.092;6.828;2022-08-25T04:21:11;19.90;1.00
20839;DHT22;10580;51.092;6.828;2022-08-25T04:23:39;19.90;1.00
20839;DHT22;10580;51.092;6.828;2022-08-25T04:26:17;19.90;1.00
20839;DHT22;10580;51.092;6.828;2022-08-25T04:28:44;19.90;1.00
20839;DHT22;10580;51.092;6.828;2022-08-25T04:31:11;19.90;1.00
20839;DHT22;10580;51.092;6.828;2022-08-25T04:33:39;20.00;1.00
20839;DHT22;10580;51.092;6.828;2022-08-25T04:36:06;19.90;1.00
20839;DHT22;10580;51.092;6.828;2022-08-25T04:38:32;19.90;1.00
20839;DHT22;10580;51.092;6.828;2022-08-25T04:41:00;19.80;1.00
20839;DHT22;10580;51.092;6.828;2022-08-25T04:46:52;19.90;1.00
20839;DHT22;10580;51.092;6.828;2022-08-25T04:49:18;19.90;1.00
20839;DHT22;10580;51.092;6.828;2022-08-25T04:51:59;19.90;1.00
20839;DHT22;10580;51.092;6.828;2022-08-25T04:54:24;20.00;1.00
20839;DHT22;10580;51.092;6.828;2022-08-25T04:57:12;20.00;1.00
20839;DHT22;10580;51.092;6.828;2022-08-25T04:59:54;20.00;1.00
20839;DHT22;10580;51.092;6.828;2022-08-25T05:02:40;20.00;1.00
20839;DHT22;10580;51.092;6.828;2022-08-25T05:05:05;20.10;1.00
20839;DHT22;10580;51.092;6.828;2022-08-25T05:07:31;20.10;1.00
20839;DHT22;10580;51.092;6.828;2022-08-25T05:09:57;20.20;1.00
20839;DHT22;10580;51.092;6.828;2022-08-25T05:12:23;20.20;1.00
20839;DHT22;10580;51.092;6.828;2022-08-25T05:14:51;20.30;1.00
20839;DHT22;10580;51.092;6.828;2022-08-25T05:17:17;20.30;1.00
20839;DHT22;10580;51.092;6.828;2022-08-25T05:19:43;20.40;1.00
20839;DHT22;10580;51.092;6.828;2022-08-25T05:22:09;20.50;1.00
20839;DHT22;10580;51.092;6.828;2022-08-25T05:24:34;20.60;1.00
20839;DHT22;10580;51.092;6.828;2022-08-25T05:27:00;20.60;1.00
20839;DHT22;10580;51.092;6.828;2022-08-25T05:29:27;20.80;1.00
20839;DHT22;10580;51.092;6.828;2022-08-25T05:31:53;20.90;1.00
20839;DHT22;10580;51.092;6.828;2022-08-25T05:34:19;21.20;1.00
20839;DHT22;10580;51.092;6.828;2022-08-25T05:36:45;21.50;1.00
20839;DHT22;10580;51.092;6.828;2022-08-25T05:39:10;21.70;1.00
20839;DHT22;10580;51.092;6.828;2022-08-25T05:41:36;21.80;1.00
20839;DHT22;10580;51.092;6.828;2022-08-25T05:44:02;22.70;1.00
20839;DHT22;10580;51.092;6.828;2022-08-25T05:46:28;24.30;99.90
20839;DHT22;10580;51.092;6.828;2022-08-25T05:48:54;26.30;99.90
20839;DHT22;10580;51.092;6.828;2022-08-25T05:51:20;28.10;1.00
20839;DHT22;10580;51.092;6.828;2022-08-25T05:53:48;29.70;99.90
20839;DHT22;10580;51.092;6.828;2022-08-25T05:56:14;30.90;1.00
20839;DHT22;10580;51.092;6.828;2022-08-25T05:58:41;31.70;1.00
20839;DHT22;10580;51.092;6.828;2022-08-25T06:01:08;32.30;99.90
20839;DHT22;10580;51.092;6.828;2022-08-25T06:03:52;32.80;99.90
20839;DHT22;10580;51.092;6.828;2022-08-25T06:06:19;33.10;99.90
20839;DHT22;10580;51.092;6.828;2022-08-25T06:08:45;33.60;53.90
20839;DHT22;10580;51.092;6.828;2022-08-25T06:11:11;34.20;75.70
20839;DHT22;10580;51.092;6.828;2022-08-25T06:13:38;34.10;21.00
20839;DHT22;10580;51.092;6.828;2022-08-25T06:16:03;33.80;1.50
20839;DHT22;10580;51.092;6.828;2022-08-25T06:18:35;33.70;1.00
20839;DHT22;10580;51.092;6.828;2022-08-25T06:21:09;33.50;1.00
20839;DHT22;10580;51.092;6.828;2022-08-25T06:23:43;33.50;1.00
20839;DHT22;10580;51.092;6.828;2022-08-25T06:26:18;33.40;1.00
20839;DHT22;10580;51.092;6.828;2022-08-25T06:28:44;34.00;1.00
20839;DHT22;10580;51.092;6.828;2022-08-25T06:31:09;33.90;1.00
20839;DHT22;10580;51.092;6.828;2022-08-25T06:33:35;34.10;1.00
20839;DHT22;10580;51.092;6.828;2022-08-25T06:36:00;34.60;1.00
20839;DHT22;10580;51.092;6.828;2022-08-25T06:38:26;35.00;1.00
20839;DHT22;10580;51.092;6.828;2022-08-25T06:40:52;35.30;1.00
20839;DHT22;10580;51.092;6.828;2022-08-25T06:43:19;35.70;1.00
20839;DHT22;10580;51.092;6.828;2022-08-25T06:45:44;36.10;1.00
20839;DHT22;10580;51.092;6.828;2022-08-25T06:48:10;36.40;1.00
20839;DHT22;10580;51.092;6.828;2022-08-25T06:50:40;36.70;1.00
20839;DHT22;10580;51.092;6.828;2022-08-25T06:53:06;36.50;1.00
20839;DHT22;10580;51.092;6.828;2022-08-25T06:55:32;36.60;1.00
20839;DHT22;10580;51.092;6.828;2022-08-25T06:57:59;36.80;1.00
20839;DHT22;10580;51.092;6.828;2022-08-25T07:00:25;37.10;1.00
20839;DHT22;10580;51.092;6.828;2022-08-25T07:02:50;36.70;1.00
20839;DHT22;10580;51.092;6.828;2022-08-25T07:05:16;37.40;1.00
20839;DHT22;10580;51.092;6.828;2022-08-25T07:07:41;37.20;1.00
20839;DHT22;10580;51.092;6.828;2022-08-25T07:10:11;37.40;1.00
20839;DHT22;10580;51.092;6.828;2022-08-25T07:12:38;37.20;1.00
20839;DHT22;10580;51.092;6.828;2022-08-25T07:15:04;37.70;1.00
20839;DHT22;10580;51.092;6.828;2022-08-25T07:17:30;38.20;1.00
20839;DHT22;10580;51.092;6.828;2022-08-25T07:19:55;38.10;1.00
20839;DHT22;10580;51.092;6.828;2022-08-25T07:22:21;38.10;1.00
20839;DHT22;10580;51.092;6.828;2022-08-25T07:24:47;38.30;1.00
20839;DHT22;10580;51.092;6.828;2022-08-25T07:27:13;38.50;1.00
20839;DHT22;10580;51.092;6.828;2022-08-25T07:29:39;38.70;1.00
20839;DHT22;10580;51.092;6.828;2022-08-25T07:32:05;38.90;1.00
20839;DHT22;10580;51.092;6.828;2022-08-25T07:34:32;38.70;1.00
20839;DHT22;10580;51.092;6.828;2022-08-25T07:37:17;38.30;1.00
20839;DHT22;10580;51.092;6.828;2022-08-25T07:39:43;38.40;1.00
20839;DHT22;10580;51.092;6.828;2022-08-25T07:42:08;38.40;1.00
20839;DHT22;10580;51.092;6.828;2022-08-25T07:44:56;38.50;1.00
20839;DHT22;10580;51.092;6.828;2022-08-25T07:47:22;38.70;1.00
20839;DHT22;10580;51.092;6.828;2022-08-25T07:49:53;39.00;1.00
20839;DHT22;10580;51.092;6.828;2022-08-25T07:52:19;39.20;1.00
20839;DHT22;10580;51.092;6.828;2022-08-25T07:54:44;39.10;1.00
20839;DHT22;10580;51.092;6.828;2022-08-25T07:57:10;39.50;1.00
20839;DHT22;10580;51.092;6.828;2022-08-25T07:59:40;39.70;1.00
20839;DHT22;10580;51.092;6.828;2022-08-25T08:02:11;39.50;1.00
20839;DHT22;10580;51.092;6.828;2022-08-25T08:04:37;39.40;1.00
20839;DHT22;10580;51.092;6.828;2022-08-25T08:07:03;38.80;1.00
20839;DHT22;10580;51.092;6.828;2022-08-25T08:09:30;38.80;1.00
20839;DHT22;10580;51.092;6.828;2022-08-25T08:11:55;39.10;1.00
20839;DHT22;10580;51.092;6.828;2022-08-25T08:14:22;39.30;1.00
20839;DHT22;10580;51.092;6.828;2022-08-25T08:16:47;39.80;1.00
20839;DHT22;10580;51.092;6.828;2022-08-25T08:19:14;39.90;1.00
20839;DHT22;10580;51.092;6.828;2022-08-25T08:21:40;40.00;1.00
20839;DHT22;10580;51.092;6.828;2022-08-25T08:24:06;39.90;1.00
20839;DHT22;10580;51.092;6.828;2022-08-25T08:26:32;39.50;1.00
20839;DHT22;10580;51.092;6.828;2022-08-25T08:28:58;39.10;1.00
20839;DHT22;10580;51.092;6.828;2022-08-25T08:31:25;39.30;1.00
20839;DHT22;10580;51.092;6.828;2022-08-25T08:33:52;39.40;1.00
20839;DHT22;10580;51.092;6.828;2022-08-25T08:36:18;39.40;1.00
20839;DHT22;10580;51.092;6.828;2022-08-25T08:38:44;39.40;1.00
20839;DHT22;10580;51.092;6.828;2022-08-25T08:52:47;39.50;1.00
20839;DHT22;10580;51.092;6.828;2022-08-25T08:57:51;39.40;1.00
20839;DHT22;10580;51.092;6.828;2022-08-25T09:00:20;39.30;1.00
20839;DHT22;10580;51.092;6.828;2022-08-25T09:03:11;39.00;1.00
20839;DHT22;10580;51.092;6.828;2022-08-25T09:05:48;38.70;1.00
20839;DHT22;10580;51.092;6.828;2022-08-25T09:08:16;38.60;1.00
20839;DHT22;10580;51.092;6.828;2022-08-25T09:11:18;38.90;1.00
20839;DHT22;10580;51.092;6.828;2022-08-25T09:14:07;39.30;1.00
20839;DHT22;10580;51.092;6.828;2022-08-25T09:17:05;39.80;1.00
20839;DHT22;10580;51.092;6.828;2022-08-25T09:19:46;39.70;1.00
20839;DHT22;10580;51.092;6.828;2022-08-25T09:22:45;39.40;1.00
20839;DHT22;10580;51.092;6.828;2022-08-25T09:28:05;38.30;1.00
20839;DHT22;10580;51.092;6.828;2022-08-25T09:31:00;39.00;1.00
20839;DHT22;10580;51.092;6.828;2022-08-25T09:33:27;38.90;1.00
20839;DHT22;10580;51.092;6.828;2022-08-25T09:35:55;38.80;1.00
20839;DHT22;10580;51.092;6.828;2022-08-25T09:38:21;38.50;1.00
20839;DHT22;10580;51.092;6.828;2022-08-25T09:40:53;38.20;1.00
20839;DHT22;10580;51.092;6.828;2022-08-25T09:43:40;38.20;1.00
20839;DHT22;10580;51.092;6.828;2022-08-25T09:46:13;37.50;1.00
20839;DHT22;10580;51.092;6.828;2022-08-25T09:48:56;37.20;1.00
20839;DHT22;10580;51.092;6.828;2022-08-25T09:51:32;36.90;1.00
20839;DHT22;10580;51.092;6.828;2022-08-25T09:56:49;35.60;1.00
20839;DHT22;10580;51.092;6.828;2022-08-25T09:59:26;35.00;1.00
20839;DHT22;10580;51.092;6.828;2022-08-25T10:01:55;34.40;1.00
20839;DHT22;10580;51.092;6.828;2022-08-25T10:04:32;34.40;1.00
20839;DHT22;10580;51.092;6.828;2022-08-25T10:07:00;34.30;1.00
20839;DHT22;10580;51.092;6.828;2022-08-25T10:11:55;33.80;1.00
20839;DHT22;10580;51.092;6.828;2022-08-25T10:14:36;33.40;1.00
20839;DHT22;10580;51.092;6.828;2022-08-25T10:17:29;33.00;1.00
20839;DHT22;10580;51.092;6.828;2022-08-25T10:23:49;32.20;1.00
20839;DHT22;10580;51.092;6.828;2022-08-25T10:40:09;32.70;1.00
20839;DHT22;10580;51.092;6.828;2022-08-25T10:42:56;32.80;1.00
20839;DHT22;10580;51.092;6.828;2022-08-25T10:45:26;33.00;1.00
20839;DHT22;10580;51.092;6.828;2022-08-25T10:59:27;34.00;1.00
20839;DHT22;10580;51.092;6.828;2022-08-25T11:02:07;34.10;1.00
20839;DHT22;10580;51.092;6.828;2022-08-25T11:04:42;34.00;1.00
20839;DHT22;10580;51.092;6.828;2022-08-25T11:09:41;33.70;1.00
20839;DHT22;10580;51.092;6.828;2022-08-25T11:14:48;33.30;1.00
20839;DHT22;10580;51.092;6.828;2022-08-25T11:17:26;33.20;1.00
20839;DHT22;10580;51.092;6.828;2022-08-25T11:19:58;33.20;1.00
20839;DHT22;10580;51.092;6.828;2022-08-25T11:22:45;33.30;1.00
20839;DHT22;10580;51.092;6.828;2022-08-25T11:25:31;33.10;1.00
20839;DHT22;10580;51.092;6.828;2022-08-25T11:28:13;33.40;1.00
20839;DHT22;10580;51.092;6.828;2022-08-25T11:30:40;33.20;1.00
20839;DHT22;10580;51.092;6.828;2022-08-25T11:33:10;33.00;1.00
20839;DHT22;10580;51.092;6.828;2022-08-25T11:35:46;33.20;1.00
20839;DHT22;10580;51.092;6.828;2022-08-25T11:38:44;33.50;1.00
20839;DHT22;10580;51.092;6.828;2022-08-25T11:47:05;33.90;1.00
20839;DHT22;10580;51.092;6.828;2022-08-25T11:58:29;34.60;1.00
20839;DHT22;10580;51.092;6.828;2022-08-25T12:04:31;34.90;1.00
20839;DHT22;10580;51.092;6.828;2022-08-25T12:18:15;35.20;1.00
20839;DHT22;10580;51.092;6.828;2022-08-25T12:23:40;36.00;1.00
20839;DHT22;10580;51.092;6.828;2022-08-25T12:26:26;36.10;1.00
20839;DHT22;10580;51.092;6.828;2022-08-25T12:29:24;35.90;1.00
20839;DHT22;10580;51.092;6.828;2022-08-25T12:37:16;35.60;1.00
20839;DHT22;10580;51.092;6.828;2022-08-25T12:42:34;35.20;1.00
20839;DHT22;10580;51.092;6.828;2022-08-25T12:47:44;35.10;1.00
20839;DHT22;10580;51.092;6.828;2022-08-25T12:50:41;35.10;1.00
20839;DHT22;10580;51.092;6.828;2022-08-25T12:53:27;35.40;1.00
20839;DHT22;10580;51.092;6.828;2022-08-25T12:56:02;35.60;1.00
20839;DHT22;10580;51.092;6.828;2022-08-25T12:58:36;35.60;1.00
20839;DHT22;10580;51.092;6.828;2022-08-25T13:01:23;36.00;1.00
20839;DHT22;10580;51.092;6.828;2022-08-25T13:07:11;36.40;1.00
20839;DHT22;10580;51.092;6.828;2022-08-25T13:14:55;36.30;1.00
20839;DHT22;10580;51.092;6.828;2022-08-25T13:17:31;36.20;1.00
20839;DHT22;10580;51.092;6.828;2022-08-25T13:20:22;36.20;1.00
20839;DHT22;10580;51.092;6.828;2022-08-25T13:22:50;36.30;1.00
20839;DHT22;10580;51.092;6.828;2022-08-25T13:25:27;36.30;1.00
20839;DHT22;10580;51.092;6.828;2022-08-25T13:27:57;36.30;1.00
20839;DHT22;10580;51.092;6.828;2022-08-25T13:34:02;36.30;1.00
20839;DHT22;10580;51.092;6.828;2022-08-25T13:36:31;36.30;1.00
20839;DHT22;10580;51.092;6.828;2022-08-25T13:39:24;36.10;1.00
20839;DHT22;10580;51.092;6.828;2022-08-25T13:41:54;36.00;1.00
20839;DHT22;10580;51.092;6.828;2022-08-25T13:44:22;36.10;1.00
20839;DHT22;10580;51.092;6.828;2022-08-25T13:49:34;36.10;1.00
20839;DHT22;10580;51.092;6.828;2022-08-25T13:52:00;36.00;1.00
20839;DHT22;10580;51.092;6.828;2022-08-25T13:54:39;35.80;1.00
20839;DHT22;10580;51.092;6.828;2022-08-25T13:57:20;35.80;1.00
20839;DHT22;10580;51.092;6.828;2022-08-25T14:00:08;35.60;1.00
20839;DHT22;10580;51.092;6.828;2022-08-25T14:03:27;35.50;1.00
20839;DHT22;10580;51.092;6.828;2022-08-25T14:09:38;35.40;1.00
20839;DHT22;10580;51.092;6.828;2022-08-25T14:12:07;35.20;1.00
20839;DHT22;10580;51.092;6.828;2022-08-25T14:14:33;35.30;1.00
20839;DHT22;10580;51.092;6.828;2022-08-25T14:17:07;35.10;1.00
20839;DHT22;10580;51.092;6.828;2022-08-25T14:19:41;34.70;1.00
20839;DHT22;10580;51.092;6.828;2022-08-25T14:22:11;34.80;1.00
20839;DHT22;10580;51.092;6.828;2022-08-25T14:24:37;34.90;1.00
20839;DHT22;10580;51.092;6.828;2022-08-25T14:27:04;34.90;1.00
20839;DHT22;10580;51.092;6.828;2022-08-25T14:29:30;35.00;1.00
20839;DHT22;10580;51.092;6.828;2022-08-25T14:31:56;34.80;1.00
20839;DHT22;10580;51.092;6.828;2022-08-25T14:34:24;34.90;1.00
20839;DHT22;10580;51.092;6.828;2022-08-25T14:36:51;35.00;1.00
20839;DHT22;10580;51.092;6.828;2022-08-25T14:39:17;35.10;1.00
20839;DHT22;10580;51.092;6.828;2022-08-25T14:41:43;35.10;1.00
20839;DHT22;10580;51.092;6.828;2022-08-25T14:44:11;35.00;1.00
20839;DHT22;10580;51.092;6.828;2022-08-25T14:46:57;35.00;1.00
20839;DHT22;10580;51.092;6.828;2022-08-25T14:49:29;34.90;1.00
20839;DHT22;10580;51.092;6.828;2022-08-25T14:52:00;34.90;1.00
20839;DHT22;10580;51.092;6.828;2022-08-25T14:54:28;34.70;1.00
20839;DHT22;10580;51.092;6.828;2022-08-25T14:56:54;34.60;1.00
20839;DHT22;10580;51.092;6.828;2022-08-25T14:59:21;34.40;1.00
20839;DHT22;10580;51.092;6.828;2022-08-25T15:01:48;34.30;1.00
20839;DHT22;10580;51.092;6.828;2022-08-25T15:04:17;34.20;1.00
20839;DHT22;10580;51.092;6.828;2022-08-25T15:06:44;34.20;1.00
20839;DHT22;10580;51.092;6.828;2022-08-25T15:09:12;34.20;1.00
20839;DHT22;10580;51.092;6.828;2022-08-25T15:11:49;34.20;1.00
20839;DHT22;10580;51.092;6.828;2022-08-25T15:14:16;34.10;1.00
20839;DHT22;10580;51.092;6.828;2022-08-25T15:16:46;34.00;1.00
20839;DHT22;10580;51.092;6.828;2022-08-25T15:19:14;34.00;1.00
20839;DHT22;10580;51.092;6.828;2022-08-25T15:21:41;34.00;1.00
20839;DHT22;10580;51.092;6.828;2022-08-25T15:24:08;34.00;1.00
20839;DHT22;10580;51.092;6.828;2022-08-25T15:26:53;33.90;1.00
20839;DHT22;10580;51.092;6.828;2022-08-25T15:29:20;33.90;1.00
20839;DHT22;10580;51.092;6.828;2022-08-25T15:31:47;33.90;1.00
20839;DHT22;10580;51.092;6.828;2022-08-25T15:34:16;33.80;1.00
20839;DHT22;10580;51.092;6.828;2022-08-25T15:36:41;33.80;1.00
20839;DHT22;10580;51.092;6.828;2022-08-25T15:39:08;33.70;1.00
20839;DHT22;10580;51.092;6.828;2022-08-25T15:41:34;33.60;1.00
20839;DHT22;10580;51.092;6.828;2022-08-25T15:44:05;33.50;1.00
20839;DHT22;10580;51.092;6.828;2022-08-25T15:46:32;33.40;1.00
20839;DHT22;10580;51.092;6.828;2022-08-25T15:48:59;33.40;1.00
20839;DHT22;10580;51.092;6.828;2022-08-25T15:51:26;33.40;1.00
20839;DHT22;10580;51.092;6.828;2022-08-25T15:53:53;33.40;1.00
20839;DHT22;10580;51.092;6.828;2022-08-25T15:56:20;33.30;1.00
20839;DHT22;10580;51.092;6.828;2022-08-25T15:58:47;33.10;1.00
20839;DHT22;10580;51.092;6.828;2022-08-25T16:01:17;33.00;1.00
20839;DHT22;10580;51.092;6.828;2022-08-25T16:03:43;33.10;1.00
20839;DHT22;10580;51.092;6.828;2022-08-25T16:06:09;33.10;1.00
20839;DHT22;10580;51.092;6.828;2022-08-25T16:08:35;33.00;1.00
20839;DHT22;10580;51.092;6.828;2022-08-25T16:11:02;33.00;1.00
20839;DHT22;10580;51.092;6.828;2022-08-25T16:13:27;33.00;1.00
20839;DHT22;10580;51.092;6.828;2022-08-25T16:15:53;33.00;1.00
20839;DHT22;10580;51.092;6.828;2022-08-25T16:18:20;33.00;1.00
20839;DHT22;10580;51.092;6.828;2022-08-25T16:20:46;33.00;1.00
20839;DHT22;10580;51.092;6.828;2022-08-25T16:23:13;33.00;1.00
20839;DHT22;10580;51.092;6.828;2022-08-25T16:25:43;33.00;1.00
20839;DHT22;10580;51.092;6.828;2022-08-25T16:28:10;33.00;1.00
20839;DHT22;10580;51.092;6.828;2022-08-25T16:30:37;33.00;1.00
20839;DHT22;10580;51.092;6.828;2022-08-25T16:33:07;32.90;1.00
20839;DHT22;10580;51.092;6.828;2022-08-25T16:35:33;32.90;1.00
20839;DHT22;10580;51.092;6.828;2022-08-25T16:37:59;32.90;1.00
20839;DHT22;10580;51.092;6.828;2022-08-25T16:40:25;32.80;1.00
20839;DHT22;10580;51.092;6.828;2022-08-25T16:42:51;32.70;1.00
20839;DHT22;10580;51.092;6.828;2022-08-25T16:45:19;32.70;1.00
20839;DHT22;10580;51.092;6.828;2022-08-25T16:47:45;32.60;1.00
20839;DHT22;10580;51.092;6.828;2022-08-25T16:50:11;32.60;1.00
20839;DHT22;10580;51.092;6.828;2022-08-25T16:52:37;32.60;1.00
20839;DHT22;10580;51.092;6.828;2022-08-25T16:55:22;32.50;1.00
20839;DHT22;10580;51.092;6.828;2022-08-25T16:57:49;32.50;1.00
20839;DHT22;10580;51.092;6.828;2022-08-25T17:00:21;32.40;1.00
20839;DHT22;10580;51.092;6.828;2022-08-25T17:02:48;32.40;1.00
20839;DHT22;10580;51.092;6.828;2022-08-25T17:05:16;32.30;1.00
20839;DHT22;10580;51.092;6.828;2022-08-25T17:07:42;32.30;1.00
20839;DHT22;10580;51.092;6.828;2022-08-25T17:10:08;32.20;1.00
20839;DHT22;10580;51.092;6.828;2022-08-25T17:16:15;32.10;1.00
20839;DHT22;10580;51.092;6.828;2022-08-25T17:18:42;32.00;1.00
20839;DHT22;10580;51.092;6.828;2022-08-25T17:21:11;32.00;1.00
20839;DHT22;10580;51.092;6.828;2022-08-25T17:23:49;32.00;1.00
20839;DHT22;10580;51.092;6.828;2022-08-25T17:26:16;32.00;1.00
20839;DHT22;10580;51.092;6.828;2022-08-25T17:28:42;32.00;1.00
20839;DHT22;10580;51.092;6.828;2022-08-25T17:31:10;31.90;1.00
20839;DHT22;10580;51.092;6.828;2022-08-25T17:33:36;31.90;1.00
20839;DHT22;10580;51.092;6.828;2022-08-25T17:36:24;31.80;1.00
20839;DHT22;10580;51.092;6.828;2022-08-25T17:38:50;31.70;1.00
20839;DHT22;10580;51.092;6.828;2022-08-25T17:41:46;31.60;1.00
20839;DHT22;10580;51.092;6.828;2022-08-25T17:44:12;31.60;1.00
20839;DHT22;10580;51.092;6.828;2022-08-25T17:46:37;31.50;1.00
20839;DHT22;10580;51.092;6.828;2022-08-25T17:49:04;31.40;1.00
20839;DHT22;10580;51.092;6.828;2022-08-25T17:51:30;31.30;1.00
20839;DHT22;10580;51.092;6.828;2022-08-25T17:53:55;31.20;1.00
20839;DHT22;10580;51.092;6.828;2022-08-25T17:56:23;31.10;1.00
20839;DHT22;10580;51.092;6.828;2022-08-25T17:58:50;31.00;1.00
20839;DHT22;10580;51.092;6.828;2022-08-25T18:01:23;30.90;1.00
20839;DHT22;10580;51.092;6.828;2022-08-25T18:03:49;30.70;1.00
20839;DHT22;10580;51.092;6.828;2022-08-25T18:06:15;30.50;1.00
20839;DHT22;10580;51.092;6.828;2022-08-25T18:08:41;30.40;1.00